Terminal Aerodrome Forecast
Issued by NWS Raleigh/Durham, NC

Home | Current Version | Previous Version | Text Only | Print | Product List | Glossary On
Versions: 1 2 3 4 5 6 7 8 9 10 11 12 13 14 15 16 17 18 19 20 21 22 23 24 25 26 27 28 29 30 31 32 33 34 35 36 37 38 39 40 41 42 43 44 45 46 47 48
063
FTUS42 KRAH 221133
TAFRDU
TAF
KRDU 221133Z 2212/2312 00000KT P6SM OVC006
      TEMPO 2212/2216 VRB06KT 2SM SHRA OVC010
     FM221600 12008KT P6SM OVC005
     FM221900 15010KT P6SM OVC010
     FM230000 15010KT P6SM VCTS OVC005CB PROB30 2301/2305 VRB25G35KT
      1SM +TSRA OVC010CB
     FM230800 22013G23KT P6SM BKN022=

USA.gov is the U.S. government's official web portal to all federal, state and local government web resources and services.